createdAt,value
2019-03-29T16:09:14.891Z,16.48
2019-03-29T16:10:14.874Z,16.64
2019-03-29T16:11:17.344Z,16.52
2019-03-29T16:12:14.951Z,16.56
2019-03-29T16:13:14.804Z,16.61
2019-03-29T16:14:15.023Z,16.62
2019-03-29T16:15:14.817Z,16.73
2019-03-29T16:16:14.856Z,16.69
2019-03-29T16:17:14.883Z,16.40
2019-03-29T16:18:14.865Z,16.50
2019-03-29T16:19:14.817Z,16.45
2019-03-29T16:20:15.444Z,16.94
2019-03-29T16:21:14.880Z,17.27
2019-03-29T16:22:15.027Z,17.05
2019-03-29T16:23:15.051Z,17.21
2019-03-29T16:24:16.081Z,17.12
2019-03-29T16:25:15.054Z,17.15
2019-03-29T16:26:14.940Z,16.74
2019-03-29T16:27:14.986Z,16.80
2019-03-29T16:28:14.955Z,17.17
2019-03-29T16:29:14.980Z,16.72
2019-03-29T16:30:14.926Z,17.26
2019-03-29T16:31:14.871Z,16.87
2019-03-29T16:32:15.041Z,16.54
2019-03-29T16:33:15.973Z,16.49
2019-03-29T16:34:14.970Z,16.47
2019-03-29T16:35:15.145Z,16.29
2019-03-29T16:36:15.043Z,16.44
2019-03-29T16:37:16.568Z,17.02
2019-03-29T16:38:15.195Z,16.86
2019-03-29T16:39:15.056Z,16.55
2019-03-29T16:40:17.434Z,16.34
2019-03-29T16:41:15.012Z,16.60
2019-03-29T16:42:14.915Z,16.74
2019-03-29T16:43:15.027Z,16.83
2019-03-29T16:44:15.379Z,16.94
2019-03-29T16:45:15.092Z,16.59
2019-03-29T16:46:15.092Z,16.54
2019-03-29T16:47:15.003Z,16.68
2019-03-29T16:48:15.344Z,16.70
2019-03-29T16:49:15.118Z,16.68
2019-03-29T16:50:15.010Z,16.76
2019-03-29T16:51:14.983Z,16.67
2019-03-29T16:52:15.074Z,16.70
2019-03-29T16:53:15.072Z,16.75
2019-03-29T16:54:15.071Z,16.26
2019-03-29T16:55:15.148Z,16.63
2019-03-29T16:56:15.217Z,16.70
2019-03-29T16:57:14.981Z,16.63
2019-03-29T16:58:15.297Z,16.25
2019-03-29T16:59:14.896Z,16.11
2019-03-29T17:00:15.340Z,16.37
2019-03-29T17:01:14.969Z,16.13
2019-03-29T17:02:15.125Z,16.11
2019-03-29T17:03:15.178Z,16.28
2019-03-29T17:04:15.041Z,15.97
2019-03-29T17:05:15.321Z,15.96
2019-03-29T17:06:15.276Z,16.08
2019-03-29T17:07:15.091Z,15.96
2019-03-29T17:08:15.113Z,15.87
2019-03-29T17:09:15.157Z,15.78
2019-03-29T17:10:15.128Z,15.80
2019-03-29T17:11:15.141Z,15.90
2019-03-29T17:12:15.054Z,15.74
2019-03-29T17:13:14.987Z,15.79
2019-03-29T17:14:15.040Z,15.85
2019-03-29T17:15:15.476Z,15.81
2019-03-29T17:16:14.921Z,15.77
2019-03-29T17:17:15.222Z,15.81
2019-03-29T17:18:28.569Z,15.80
2019-03-29T17:19:15.304Z,15.82
2019-03-29T17:20:14.916Z,15.76
2019-03-29T17:21:15.111Z,15.76
2019-03-29T17:22:15.047Z,15.80
2019-03-29T17:23:15.387Z,15.81
2019-03-29T17:24:14.966Z,15.73
2019-03-29T17:25:14.965Z,15.66
2019-03-29T17:26:15.110Z,15.72
2019-03-29T17:27:15.017Z,15.70
2019-03-29T17:28:15.332Z,15.60
2019-03-29T17:29:14.991Z,15.58
2019-03-29T17:30:15.011Z,15.49
2019-03-29T17:31:15.080Z,15.48
2019-03-29T17:32:14.971Z,15.50
2019-03-29T17:33:15.204Z,15.48
2019-03-29T17:34:15.067Z,15.53
2019-03-29T17:35:15.083Z,15.45
2019-03-29T17:36:15.196Z,15.41
2019-03-29T17:37:15.090Z,15.45
2019-03-29T17:38:15.048Z,15.46
2019-03-29T17:39:15.095Z,15.39
2019-03-29T17:40:15.021Z,15.44
2019-03-29T17:41:15.070Z,15.37
2019-03-29T17:42:15.077Z,15.31
2019-03-29T17:43:15.344Z,15.31
2019-03-29T17:44:15.143Z,15.27
2019-03-29T17:45:15.051Z,15.31
2019-03-29T17:46:16.286Z,15.26
2019-03-29T17:47:15.134Z,15.27
2019-03-29T17:48:15.069Z,15.25
2019-03-29T17:49:15.203Z,15.14
2019-03-29T17:50:15.218Z,15.09
2019-03-29T17:51:14.999Z,15.11
2019-03-29T17:52:15.182Z,15.14
2019-03-29T17:53:15.121Z,15.09
2019-03-29T17:54:14.996Z,15.08
2019-03-29T17:55:15.078Z,15.03
2019-03-29T17:56:15.021Z,14.98
2019-03-29T17:57:15.265Z,14.89
2019-03-29T17:58:15.108Z,14.97
2019-03-29T17:59:15.034Z,14.95
2019-03-29T18:00:15.084Z,14.93
2019-03-29T18:01:17.746Z,14.88
2019-03-29T18:02:15.113Z,15.00
2019-03-29T18:03:15.121Z,14.96
2019-03-29T18:04:15.120Z,14.96
2019-03-29T18:05:15.420Z,14.88
2019-03-29T18:06:15.120Z,14.85
2019-03-29T18:07:15.322Z,14.78
2019-03-29T18:08:15.129Z,14.75
2019-03-29T18:09:15.215Z,14.75
2019-03-29T18:10:14.988Z,14.70
2019-03-29T18:11:15.216Z,14.68
2019-03-29T18:12:15.409Z,14.68
2019-03-29T18:13:15.188Z,14.63
2019-03-29T18:14:15.095Z,14.42
2019-03-29T18:15:15.047Z,14.26
2019-03-29T18:16:29.580Z,14.28
2019-03-29T18:17:15.290Z,14.23
2019-03-29T18:18:15.232Z,14.18
2019-03-29T18:19:15.000Z,14.09
2019-03-29T18:20:15.102Z,14.08
2019-03-29T18:21:14.994Z,13.96
2019-03-29T18:22:15.204Z,13.92
2019-03-29T18:23:15.293Z,14.00
2019-03-29T18:24:15.130Z,14.14
2019-03-29T18:25:15.179Z,14.16
2019-03-29T18:26:15.035Z,14.25
2019-03-29T18:27:15.254Z,14.06
2019-03-29T18:28:15.070Z,14.15
2019-03-29T18:29:15.198Z,14.12
2019-03-29T18:30:14.986Z,14.05
2019-03-29T18:31:15.095Z,13.98
2019-03-29T18:32:15.176Z,14.01
2019-03-29T18:33:15.183Z,13.96
2019-03-29T18:34:16.134Z,13.91
2019-03-29T18:35:15.001Z,14.00
2019-03-29T18:36:15.262Z,13.90
2019-03-29T18:37:15.471Z,14.06
2019-03-29T18:38:15.209Z,13.85
2019-03-29T18:39:15.150Z,13.86
2019-03-29T18:40:15.201Z,14.00
2019-03-29T18:41:15.177Z,13.69
2019-03-29T18:42:15.207Z,13.66
2019-03-29T18:43:15.205Z,13.50
2019-03-29T18:44:15.221Z,13.56
2019-03-29T18:45:15.182Z,13.57
2019-03-29T18:46:15.304Z,13.39
2019-03-29T18:47:15.331Z,13.25
2019-03-29T18:48:15.128Z,12.92
2019-03-29T18:49:15.326Z,13.14
2019-03-29T18:50:15.339Z,13.46
2019-03-29T18:51:15.204Z,13.61
2019-03-29T18:52:15.343Z,13.60
2019-03-29T18:53:15.267Z,13.75
2019-03-29T18:54:15.365Z,13.39
2019-03-29T18:55:15.222Z,13.23
2019-03-29T18:56:15.422Z,13.42
2019-03-29T18:57:15.331Z,13.42
2019-03-29T18:58:15.655Z,13.58
2019-03-29T18:59:15.401Z,13.60
2019-03-29T19:00:15.378Z,13.66
2019-03-29T19:01:15.470Z,13.46
2019-03-29T19:02:15.680Z,13.22
2019-03-29T19:03:18.040Z,13.14
2019-03-29T19:04:15.518Z,12.98
2019-03-29T19:05:15.544Z,12.96
2019-03-29T19:06:15.326Z,13.03
2019-03-29T19:07:15.669Z,13.15
2019-03-29T19:08:15.415Z,13.26
2019-03-29T19:09:15.466Z,13.42
2019-03-29T19:10:15.522Z,13.44
2019-03-29T19:11:15.367Z,13.46
2019-03-29T19:12:15.364Z,13.47
2019-03-29T19:13:15.554Z,13.55
2019-03-29T19:14:15.434Z,13.37
2019-03-29T19:15:15.390Z,13.07
2019-03-29T19:16:15.487Z,13.00
2019-03-29T19:17:15.611Z,13.06
2019-03-29T19:18:16.605Z,12.79
2019-03-29T19:19:15.471Z,12.66
2019-03-29T19:20:26.563Z,12.53
2019-03-29T19:21:15.439Z,12.60
2019-03-29T19:22:15.732Z,12.51
2019-03-29T19:23:15.475Z,12.66
2019-03-29T19:24:15.469Z,12.65
2019-03-29T19:25:15.511Z,12.51
2019-03-29T19:26:15.454Z,12.36
2019-03-29T19:27:15.565Z,12.35
2019-03-29T19:28:15.633Z,12.10
2019-03-29T19:29:15.665Z,12.04
2019-03-29T19:30:15.494Z,12.03
2019-03-29T19:31:15.576Z,11.90
2019-03-29T19:32:15.441Z,11.58
2019-03-29T19:33:15.690Z,11.57
2019-03-29T19:34:15.534Z,11.53
2019-03-29T19:35:15.536Z,11.61
2019-03-29T19:36:15.470Z,11.60
2019-03-29T19:37:18.222Z,11.70
2019-03-29T19:38:15.589Z,11.65
2019-03-29T19:39:15.651Z,11.59
2019-03-29T19:40:15.786Z,11.53
2019-03-29T19:41:15.454Z,11.39
2019-03-29T19:42:16.834Z,11.64
2019-03-29T19:43:15.452Z,11.61
2019-03-29T19:44:15.474Z,11.52
2019-03-29T19:45:15.442Z,11.60
2019-03-29T19:46:15.652Z,11.70
2019-03-29T19:47:15.532Z,11.68
2019-03-29T19:48:15.460Z,11.70
2019-03-29T19:49:15.533Z,12.08
2019-03-29T19:50:15.682Z,11.78
2019-03-29T19:51:15.646Z,11.57
2019-03-29T19:52:15.613Z,11.58
2019-03-29T19:53:15.595Z,11.62
2019-03-29T19:54:15.431Z,11.93
2019-03-29T19:55:15.466Z,11.85
2019-03-29T19:56:15.770Z,11.74
2019-03-29T19:57:15.568Z,11.54
2019-03-29T19:58:15.504Z,11.46
2019-03-29T19:59:15.507Z,11.52
2019-03-29T20:00:15.495Z,11.35
2019-03-29T20:01:15.706Z,11.44
2019-03-29T20:02:15.648Z,11.29
2019-03-29T20:03:15.649Z,11.39
2019-03-29T20:04:15.508Z,11.35
2019-03-29T20:05:15.738Z,11.31
2019-03-29T20:06:15.638Z,11.28
2019-03-29T20:07:15.478Z,11.31
2019-03-29T20:08:15.755Z,11.18
2019-03-29T20:09:15.553Z,11.50
2019-03-29T20:10:15.481Z,11.69
2019-03-29T20:11:15.999Z,11.51
2019-03-29T20:12:15.679Z,11.39
2019-03-29T20:13:15.876Z,11.35
2019-03-29T20:14:15.604Z,11.48
2019-03-29T20:15:15.722Z,11.37
2019-03-29T20:16:15.498Z,11.49
2019-03-29T20:17:27.004Z,11.57
2019-03-29T20:18:15.508Z,11.40
2019-03-29T20:19:15.514Z,11.42
2019-03-29T20:20:15.530Z,11.22
2019-03-29T20:21:15.477Z,11.12
2019-03-29T20:22:16.290Z,11.00
2019-03-29T20:23:15.674Z,10.79
2019-03-29T20:24:15.606Z,10.70
2019-03-29T20:25:15.497Z,10.69
2019-03-29T20:26:15.750Z,10.60
2019-03-29T20:27:15.540Z,10.52
2019-03-29T20:28:15.639Z,10.48
2019-03-29T20:29:15.482Z,10.67
2019-03-29T20:30:17.812Z,10.74
2019-03-29T20:31:15.469Z,10.57
2019-03-29T20:32:15.671Z,10.53
2019-03-29T20:33:15.648Z,10.47
2019-03-29T20:34:15.611Z,10.21
2019-03-29T20:35:15.727Z,10.69
2019-03-29T20:36:22.773Z,10.95
2019-03-29T20:37:15.715Z,11.03
2019-03-29T20:38:15.525Z,11.09
2019-03-29T20:39:15.593Z,11.14
2019-03-29T20:40:15.556Z,10.92
2019-03-29T20:41:15.604Z,10.80
2019-03-29T20:42:15.624Z,10.86
2019-03-29T20:43:15.549Z,10.76
2019-03-29T20:44:15.580Z,10.60
2019-03-29T20:45:15.838Z,10.54
2019-03-29T20:46:15.765Z,10.36
2019-03-29T20:47:15.957Z,10.43
2019-03-29T20:48:15.759Z,10.48
2019-03-29T20:49:15.865Z,10.45
2019-03-29T20:50:15.607Z,10.60
2019-03-29T20:51:15.576Z,10.55
2019-03-29T20:52:16.090Z,10.45
2019-03-29T20:53:15.590Z,10.63
2019-03-29T20:54:15.792Z,10.74
2019-03-29T20:55:15.708Z,10.67
2019-03-29T20:56:16.162Z,10.45
2019-03-29T20:57:15.665Z,10.25
2019-03-29T20:58:15.729Z,10.18
2019-03-29T20:59:16.673Z,10.03
2019-03-29T21:00:15.738Z,10.12
2019-03-29T21:01:15.595Z,10.15
2019-03-29T21:02:15.622Z,10.17
2019-03-29T21:03:15.683Z,10.08
2019-03-29T21:04:15.873Z,10.13
2019-03-29T21:05:16.015Z,10.00
2019-03-29T21:06:15.644Z,10.12
2019-03-29T21:07:15.677Z,9.98
2019-03-29T21:08:15.877Z,9.90
2019-03-29T21:09:15.956Z,9.91
2019-03-29T21:10:15.621Z,9.99
2019-03-29T21:11:16.598Z,10.03
2019-03-29T21:12:15.730Z,10.14
2019-03-29T21:13:15.650Z,10.19
2019-03-29T21:14:15.652Z,10.16
2019-03-29T21:15:15.639Z,10.12
2019-03-29T21:16:15.628Z,10.13
2019-03-29T21:17:15.684Z,10.22
2019-03-29T21:18:17.427Z,10.30
2019-03-29T21:19:15.975Z,10.33
2019-03-29T21:20:15.744Z,10.29
2019-03-29T21:21:15.657Z,10.25
2019-03-29T21:22:15.753Z,10.25
2019-03-29T21:23:15.732Z,10.17
2019-03-29T21:24:15.693Z,10.13
2019-03-29T21:25:15.715Z,10.13
2019-03-29T21:26:16.027Z,10.15
2019-03-29T21:27:15.763Z,10.10
2019-03-29T21:28:15.808Z,10.08
2019-03-29T21:29:18.214Z,10.04
2019-03-29T21:30:15.980Z,10.05
2019-03-29T21:31:15.734Z,10.11
2019-03-29T21:32:16.310Z,10.05
2019-03-29T21:33:15.931Z,10.11
2019-03-29T21:34:15.648Z,10.09
2019-03-29T21:35:15.708Z,10.05
2019-03-29T21:36:18.108Z,9.96
2019-03-29T21:37:15.702Z,9.99
2019-03-29T21:38:15.792Z,9.91
2019-03-29T21:39:15.829Z,9.86
2019-03-29T21:40:15.688Z,9.71
2019-03-29T21:41:15.848Z,9.72
2019-03-29T21:42:15.858Z,9.82
2019-03-29T21:43:15.795Z,9.89
2019-03-29T21:44:16.838Z,9.85
2019-03-29T21:45:28.107Z,9.82
2019-03-29T21:46:15.754Z,9.74
2019-03-29T21:47:17.691Z,9.79
2019-03-29T21:48:27.253Z,9.68
2019-03-29T21:49:15.882Z,9.68
2019-03-29T21:50:15.662Z,9.64
2019-03-29T21:51:18.208Z,9.58
2019-03-29T21:52:15.959Z,9.56
2019-03-29T21:53:15.726Z,9.51
2019-03-29T21:54:15.676Z,9.55
2019-03-29T21:55:15.889Z,9.50
2019-03-29T21:56:16.027Z,9.55
2019-03-29T21:57:15.868Z,9.52
2019-03-29T21:58:16.417Z,9.53
2019-03-29T21:59:15.759Z,9.54
2019-03-29T22:00:15.720Z,9.55
